Time;durP1;ratioP1;P1;durP2;ratioP2;P2;SDS_P1;SDS_P2;PMS_P1;PMS_P2;Temp;Humidity;BMP_temperature;BMP_pressure;BME280_temperature;BME280_humidity;BME280_pressure;Samples;Min_cycle;Max_cycle;Signal;HPM_P1;HPM_P2
2021/12/25 00:00:13;;;;;;;2.70;1.20;;;;;;;-1.90;78.81;99054.29;83970;1326;1016715;-72
2021/12/25 00:02:43;;;;;;;2.20;1.50;;;;;;;-1.95;78.49;99056.55;84700;1329;22619;-73
2021/12/25 00:04:53;;;;;;;;;;;;;;;-1.98;78.58;99063.41;84743;1328;22566;-73
2021/12/25 00:07:04;;;;;;;1.70;1.40;;;;;;;-2.01;78.59;99071.14;84623;1330;23958;-73
2021/12/25 00:09:17;;;;;;;4.20;1.80;;;;;;;-2.05;78.52;99078.85;84725;1329;22656;-73
2021/12/25 00:11:26;;;;;;;1.70;1.50;;;;;;;-2.10;78.61;99084.54;84735;1327;22589;-73
2021/12/25 00:13:54;;;;;;;1.70;1.50;;;;;;;-2.14;78.66;99087.80;84705;1327;22995;-72
2021/12/25 00:16:04;;;;;;;1.80;1.40;;;;;;;-2.14;78.88;99093.78;84718;1327;23935;-72
2021/12/25 00:18:14;;;;;;;1.40;1.30;;;;;;;-2.14;78.56;99098.40;84713;1330;22602;-73
2021/12/25 00:20:25;;;;;;;2.70;1.90;;;;;;;-2.15;78.47;99103.54;84725;1328;22591;-71
2021/12/25 00:22:35;;;;;;;3.40;1.70;;;;;;;-2.17;78.73;99107.98;84719;1324;22616;-71
2021/12/25 00:24:45;;;;;;;2.80;2.00;;;;;;;-2.17;78.69;99115.67;84705;1328;22177;-70
2021/12/25 00:27:05;;;;;;;4.30;3.20;;;;;;;-2.17;78.69;99117.89;84709;1330;22615;-71
2021/12/25 00:29:35;;;;;;;2.30;1.70;;;;;;;-2.17;78.60;99124.05;84713;1327;22803;-72
2021/12/25 00:31:50;;;;;;;;;;;;;;;-2.21;78.21;99134.48;84733;1327;22573;-71
2021/12/25 00:34:01;;;;;;;6.70;3.00;;;;;;;-2.26;78.32;99140.34;84732;1325;22630;-65
2021/12/25 00:36:17;;;;;;;3.40;2.00;;;;;;;-2.28;78.35;99146.85;84693;1327;25359;-70
2021/12/25 00:38:27;;;;;;;3.40;2.50;;;;;;;-2.32;78.33;99148.39;83996;1327;1002773;-68
2021/12/25 00:40:37;;;;;;;3.30;2.50;;;;;;;-2.35;78.68;99155.59;84731;1327;22616;-73
2021/12/25 00:42:51;;;;;;;2.20;1.90;;;;;;;-2.36;78.70;99162.09;84682;1326;22596;-73
2021/12/25 00:45:02;;;;;;;4.20;2.20;;;;;;;-2.38;78.47;99168.75;83948;1330;1003651;-74
2021/12/25 00:47:20;;;;;;;4.40;2.00;;;;;;;-2.39;78.57;99175.24;84648;1328;24255;-76
2021/12/25 00:49:32;;;;;;;3.30;2.20;;;;;;;-2.38;78.51;99185.14;84659;1329;23927;-70
2021/12/25 00:51:43;;;;;;;2.50;1.80;;;;;;;-2.38;78.56;99188.89;84722;1327;22603;-76
2021/12/25 00:53:54;;;;;;;3.80;2.00;;;;;;;-2.36;78.64;99200.84;84683;1331;22631;-70
2021/12/25 00:56:05;;;;;;;4.20;2.20;;;;;;;-2.35;78.60;99202.90;84680;1330;23945;-71
2021/12/25 00:58:14;;;;;;;9.40;2.50;;;;;;;-2.37;78.21;99210.08;84667;1332;24259;-69
2021/12/25 01:00:27;;;;;;;2.60;2.00;;;;;;;-2.42;78.27;99213.16;84719;1325;23466;-71
2021/12/25 01:02:36;;;;;;;4.00;1.90;;;;;;;-2.48;77.98;99213.54;84683;1327;23971;-71
2021/12/25 01:04:52;;;;;;;4.30;2.40;;;;;;;-2.55;77.91;99223.98;84662;1327;23966;-70
2021/12/25 01:07:01;;;;;;;2.30;1.50;;;;;;;-2.65;77.93;99234.08;84710;1330;22534;-70
2021/12/25 01:09:14;;;;;;;2.90;1.70;;;;;;;-2.73;77.93;99241.28;84694;1327;22616;-71
2021/12/25 01:11:26;;;;;;;4.80;1.90;;;;;;;-2.81;77.86;99249.48;84698;1328;22598;-71
2021/12/25 01:13:39;;;;;;;3.30;2.20;;;;;;;-2.88;77.98;99253.94;84723;1330;25442;-71
2021/12/25 01:16:03;;;;;;;3.10;1.60;;;;;;;-2.93;77.78;99264.52;84000;1330;1003466;-70
2021/12/25 01:30:57;;;;;;;2.60;1.50;;;;;;;-3.32;77.30;99307.52;84467;1333;23897;-73
2021/12/25 01:33:28;;;;;;;5.60;1.50;;;;;;;-3.42;77.22;99308.36;84476;1333;24274;-73
2021/12/25 01:36:12;;;;;;;2.70;1.40;;;;;;;-3.53;77.03;99318.74;83812;1332;1005516;-69
2021/12/25 01:38:37;;;;;;;;;;;;;;;-3.69;76.85;99324.17;84492;1333;22570;-73
2021/12/25 01:40:58;;;;;;;4.00;1.10;;;;;;;-3.84;77.14;99323.78;84504;1332;22613;-70
2021/12/25 01:48:06;;;;;;;3.90;1.90;;;;;;;-4.10;77.05;99347.36;84713;1327;22627;-70
2021/12/25 01:50:16;;;;;;;1.70;1.40;;;;;;;-4.18;77.27;99353.13;84693;1327;22809;-71
2021/12/25 01:52:30;;;;;;;6.80;3.40;;;;;;;-4.24;77.13;99352.92;83963;1332;1003026;-70
2021/12/25 01:54:42;;;;;;;4.00;1.80;;;;;;;-4.30;77.20;99357.66;84718;1330;22610;-74
2021/12/25 01:56:51;;;;;;;2.40;0.90;;;;;;;-4.34;77.14;99362.91;84681;1328;22609;-72
2021/12/25 01:59:04;;;;;;;2.70;1.20;;;;;;;-4.37;77.27;99365.63;84697;1329;25555;-72
2021/12/25 02:01:16;;;;;;;4.80;1.50;;;;;;;-4.39;77.28;99367.31;84675;1330;22708;-70
2021/12/25 02:03:29;;;;;;;2.70;1.50;;;;;;;-4.45;77.12;99376.48;84706;1322;22610;-71
2021/12/25 02:05:39;;;;;;;2.20;1.20;;;;;;;-4.53;77.12;99382.55;84700;1327;22597;-69
2021/12/25 02:07:47;;;;;;;;;;;;;;;-4.60;76.88;99385.39;84720;1324;25462;-69
2021/12/25 02:09:59;;;;;;;4.00;1.30;;;;;;;-4.71;77.16;99395.17;84720;1327;22621;-71
2021/12/25 02:12:14;;;;;;;4.30;1.40;;;;;;;-4.79;77.17;99397.33;84729;1323;22591;-74
2021/12/25 02:14:28;;;;;;;4.30;1.70;;;;;;;-4.86;77.56;99399.48;84704;1327;26478;-72
2021/12/25 02:16:52;;;;;;;3.60;1.30;;;;;;;-4.92;77.69;99401.98;84681;1328;22872;-73
2021/12/25 02:19:10;;;;;;;2.60;1.60;;;;;;;-4.98;77.68;99404.14;83978;1328;1003456;-72
2021/12/25 02:21:23;;;;;;;3.90;1.50;;;;;;;-5.02;77.80;99407.33;83997;1329;1003088;-70
2021/12/25 02:23:36;;;;;;;5.20;2.10;;;;;;;-5.09;77.84;99417.30;84709;1327;22603;-70
2021/12/25 02:25:49;;;;;;;7.30;2.60;;;;;;;-5.15;77.85;99426.41;84730;1328;23988;-71
2021/12/25 02:28:02;;;;;;;4.60;1.30;;;;;;;-5.21;77.77;99431.98;84696;1326;23151;-72
2021/12/25 02:30:41;;;;;;;3.60;1.40;;;;;;;-5.26;77.93;99433.96;84734;1327;22603;-72
2021/12/25 02:33:00;;;;;;;5.00;1.30;;;;;;;-5.31;77.69;99440.52;83983;1322;1002444;-72
2021/12/25 02:35:16;;;;;;;2.20;1.10;;;;;;;-5.38;77.54;99444.89;84055;1324;1003763;-71
2021/12/25 02:37:29;;;;;;;3.20;1.50;;;;;;;-5.40;77.82;99451.83;84695;1326;23959;-70
2021/12/25 02:39:39;;;;;;;4.10;1.50;;;;;;;-5.41;77.87;99454.02;84657;1329;22675;-71
2021/12/25 02:41:50;;;;;;;3.40;1.30;;;;;;;-5.42;77.65;99462.00;84660;1330;27087;-71
2021/12/25 02:44:05;;;;;;;3.00;1.30;;;;;;;-5.47;77.66;99468.06;84726;1325;22659;-72
2021/12/25 02:46:19;;;;;;;4.70;1.40;;;;;;;-5.52;77.78;99474.96;84698;1328;22634;-70
2021/12/25 02:48:36;;;;;;;3.50;1.30;;;;;;;-5.57;77.63;99479.50;84728;1327;26527;-71
2021/12/25 02:50:54;;;;;;;3.10;1.20;;;;;;;-5.63;77.75;99485.19;84696;1327;26046;-70
2021/12/25 02:53:07;;;;;;;2.70;1.60;;;;;;;-5.70;77.64;99486.46;84693;1327;22606;-68
2021/12/25 02:55:17;;;;;;;5.20;1.90;;;;;;;-5.78;77.65;99493.15;84700;1329;24271;-70
2021/12/25 02:57:28;;;;;;;2.40;1.60;;;;;;;-5.86;77.77;99497.46;84711;1327;25689;-69
2021/12/25 02:59:38;;;;;;;5.20;1.40;;;;;;;-5.94;77.58;99500.27;84707;1327;24074;-70
2021/12/25 03:01:49;;;;;;;3.70;1.00;;;;;;;-6.00;77.75;99501.70;84685;1327;22617;-70
2021/12/25 03:03:58;;;;;;;2.60;1.30;;;;;;;-6.04;77.73;99505.90;84704;1327;22661;-71
2021/12/25 03:06:08;;;;;;;3.90;1.50;;;;;;;-6.09;77.60;99508.36;83958;1329;1003018;-69
2021/12/25 03:08:22;;;;;;;2.10;1.20;;;;;;;-6.14;77.76;99511.18;83981;1327;1003884;-69
2021/12/25 03:10:36;;;;;;;3.10;1.10;;;;;;;-6.16;77.86;99517.09;84641;1328;25407;-71
2021/12/25 03:12:53;;;;;;;1.60;1.40;;;;;;;-6.17;78.05;99518.09;84675;1327;22662;-70
2021/12/25 03:15:04;;;;;;;2.40;1.40;;;;;;;-6.17;78.23;99520.98;84678;1325;22793;-71
2021/12/25 03:17:13;;;;;;;4.20;1.30;;;;;;;-6.18;78.18;99520.27;84706;1327;22676;-70
2021/12/25 03:19:31;;;;;;;6.30;2.20;;;;;;;-6.22;78.15;99521.42;84703;1327;25472;-70
2021/12/25 03:21:41;;;;;;;4.10;2.70;;;;;;;-6.25;78.22;99525.94;84720;1328;22672;-70
2021/12/25 03:23:53;;;;;;;3.90;1.50;;;;;;;-6.29;78.36;99532.67;84696;1327;22656;-70
2021/12/25 03:26:06;;;;;;;2.50;1.60;;;;;;;-6.33;78.16;99539.73;84689;1321;23043;-71
2021/12/25 03:28:16;;;;;;;4.70;2.30;;;;;;;-6.38;78.22;99543.05;84637;1329;22658;-71
2021/12/25 03:30:25;;;;;;;6.00;1.50;;;;;;;-6.43;78.30;99548.21;84708;1324;22614;-70
2021/12/25 03:32:34;;;;;;;4.70;1.20;;;;;;;-6.48;78.41;99547.46;84693;1327;26487;-70
2021/12/25 03:34:47;;;;;;;2.90;1.40;;;;;;;-6.53;78.56;99554.34;84708;1331;22616;-72
2021/12/25 03:36:59;;;;;;;3.20;1.70;;;;;;;-6.58;78.44;99560.85;84686;1327;24242;-72
2021/12/25 03:39:09;;;;;;;2.70;1.60;;;;;;;-6.64;78.37;99565.15;84695;1328;25488;-71
2021/12/25 03:41:19;;;;;;;6.90;2.00;;;;;;;-6.69;78.39;99567.27;84669;1329;22553;-69
2021/12/25 03:43:32;;;;;;;3.10;1.80;;;;;;;-6.72;78.33;99575.86;84714;1327;23052;-69
2021/12/25 03:45:41;;;;;;;3.80;1.60;;;;;;;-6.76;78.30;99577.50;84042;1324;1003916;-70
2021/12/25 03:48:02;;;;;;;4.70;1.70;;;;;;;-6.80;78.33;99575.73;84680;1328;23974;-71
2021/12/25 03:57:41;;;;;;;2.40;1.70;;;;;;;-6.94;78.45;99584.95;83823;1330;1003246;-71
2021/12/25 03:59:59;;;;;;;5.40;2.20;;;;;;;-7.01;78.32;99590.92;84719;1326;22582;-71
2021/12/25 04:02:17;;;;;;;5.30;2.30;;;;;;;-7.07;78.44;99598.44;84727;1328;24171;-72
2021/12/25 04:04:33;;;;;;;2.90;1.80;;;;;;;-7.10;78.50;99601.25;84740;1327;24338;-70
2021/12/25 04:06:50;;;;;;;4.00;1.80;;;;;;;-7.14;78.51;99608.29;84706;1327;22588;-70
2021/12/25 04:09:02;;;;;;;5.10;1.70;;;;;;;-7.19;78.38;99610.72;84003;1324;1003396;-70
2021/12/25 04:11:15;;;;;;;4.40;1.50;;;;;;;-7.25;78.44;99612.29;84716;1323;22709;-70
2021/12/25 04:13:25;;;;;;;3.40;1.60;;;;;;;-7.30;78.36;99616.27;84707;1327;23816;-71
2021/12/25 04:15:34;;;;;;;8.90;2.70;;;;;;;-7.30;78.46;99625.73;84743;1321;22700;-71
2021/12/25 04:17:43;;;;;;;4.80;1.80;;;;;;;-7.31;78.33;99631.33;84707;1327;22654;-69
2021/12/25 04:19:52;;;;;;;5.50;1.60;;;;;;;-7.31;78.25;99633.17;84733;1328;22647;-70
2021/12/25 04:22:08;;;;;;;7.80;1.80;;;;;;;-7.30;78.35;99638.44;84738;1325;22705;-72
2021/12/25 04:24:17;;;;;;;4.90;1.60;;;;;;;-7.30;78.37;99644.05;84714;1326;22622;-70
2021/12/25 04:26:27;;;;;;;7.90;2.50;;;;;;;-7.25;78.52;99642.77;84708;1330;22602;-69
2021/12/25 04:28:41;;;;;;;2.90;1.50;;;;;;;-7.21;78.48;99645.58;84703;1324;22602;-71
2021/12/25 04:31:11;;;;;;;3.80;1.70;;;;;;;-7.16;78.46;99652.30;84731;1330;23937;-70
2021/12/25 04:48:58;;;;;;;3.20;1.70;;;;;;;-7.42;78.07;99689.01;84711;1322;23032;-72
2021/12/25 05:03:20;;;;;;;5.70;2.60;;;;;;;-7.92;78.40;99711.02;84692;1327;23085;-70
2021/12/25 05:05:33;;;;;;;3.80;1.80;;;;;;;-7.95;78.37;99708.89;84712;1327;22678;-70
2021/12/25 05:07:43;;;;;;;4.60;2.00;;;;;;;-7.97;78.34;99714.08;84707;1325;22612;-70
2021/12/25 05:09:53;;;;;;;2.30;1.40;;;;;;;-8.00;78.32;99712.48;84704;1328;26481;-70
2021/12/25 05:12:07;;;;;;;5.50;1.90;;;;;;;-8.02;78.62;99712.61;84004;1328;1003053;-70
2021/12/25 05:14:16;;;;;;;5.70;2.50;;;;;;;-8.03;78.22;99715.13;84693;1327;25329;-71
2021/12/25 05:16:28;;;;;;;4.70;1.50;;;;;;;-8.03;78.50;99722.55;84649;1328;23939;-71
2021/12/25 05:18:38;;;;;;;2.00;1.60;;;;;;;-7.98;78.61;99721.84;84694;1327;23907;-70
2021/12/25 05:20:47;;;;;;;2.50;1.90;;;;;;;-7.97;78.38;99725.61;84715;1327;24259;-69
2021/12/25 05:22:59;;;;;;;4.60;2.40;;;;;;;-7.98;78.41;99731.32;84668;1327;22599;-69
2021/12/25 05:25:10;;;;;;;2.80;2.00;;;;;;;-8.02;78.28;99732.73;84703;1327;24243;-72
2021/12/25 05:27:22;;;;;;;4.10;2.10;;;;;;;-8.07;78.15;99731.59;84706;1327;22593;-72
2021/12/25 05:29:34;;;;;;;5.20;2.40;;;;;;;-8.13;78.18;99733.48;84687;1330;25379;-70
2021/12/25 05:31:43;;;;;;;4.60;2.90;;;;;;;-8.15;78.33;99737.81;84687;1327;24255;-69
2021/12/25 05:33:52;;;;;;;5.10;3.90;;;;;;;-8.21;78.22;99743.56;84725;1327;24270;-70
2021/12/25 05:36:06;;;;;;;9.90;4.10;;;;;;;-8.26;78.33;99744.63;83996;1327;1003326;-72
2021/12/25 05:38:15;;;;;;;9.00;3.80;;;;;;;-8.30;78.45;99748.23;84675;1327;22662;-72
2021/12/25 05:40:25;;;;;;;4.70;3.60;;;;;;;-8.34;78.47;99746.77;84018;1324;1003854;-72
2021/12/25 05:42:36;;;;;;;6.40;4.30;;;;;;;-8.40;78.48;99748.17;84677;1327;22592;-72
2021/12/25 05:44:45;;;;;;;7.60;3.60;;;;;;;-8.46;78.47;99749.86;84013;1327;1003303;-71
2021/12/25 05:46:57;;;;;;;5.80;4.30;;;;;;;-8.50;78.65;99750.08;84675;1328;22632;-71
2021/12/25 05:49:07;;;;;;;9.00;4.50;;;;;;;-8.54;78.61;99751.16;84672;1327;22620;-71
2021/12/25 05:51:16;;;;;;;5.10;3.70;;;;;;;-8.57;78.67;99754.79;84702;1327;22662;-70
2021/12/25 05:53:26;;;;;;;6.50;3.60;;;;;;;-8.59;78.57;99762.02;83947;1328;1002911;-69
2021/12/25 05:55:33;;;;;;;;;;;;;;;-8.62;78.47;99765.65;84699;1324;22591;-70
2021/12/25 05:57:43;;;;;;;11.90;3.80;;;;;;;-8.64;78.67;99772.17;84665;1327;22593;-70
2021/12/25 05:59:52;;;;;;;5.80;2.80;;;;;;;-8.61;78.88;99775.16;84669;1327;22636;-70
2021/12/25 06:02:05;;;;;;;12.40;4.10;;;;;;;-8.57;79.05;99779.98;84664;1328;23017;-70
2021/12/25 06:04:14;;;;;;;8.00;3.70;;;;;;;-8.55;78.68;99781.73;84699;1327;22774;-70
2021/12/25 06:06:25;;;;;;;6.90;3.40;;;;;;;-8.54;78.80;99782.61;84684;1327;22626;-71
2021/12/25 06:08:38;;;;;;;6.80;3.10;;;;;;;-8.54;78.57;99782.59;84659;1325;22880;-70
2021/12/25 06:10:47;;;;;;;5.50;3.10;;;;;;;-8.57;78.53;99784.04;84683;1325;22742;-70
2021/12/25 06:12:59;;;;;;;6.00;2.70;;;;;;;-8.57;78.64;99785.23;84693;1329;25294;-70
2021/12/25 06:15:13;;;;;;;7.10;3.30;;;;;;;-8.61;78.51;99790.55;84723;1327;22589;-71
2021/12/25 06:17:22;;;;;;;4.80;3.20;;;;;;;-8.64;78.42;99793.13;84678;1327;23911;-70
2021/12/25 06:19:34;;;;;;;4.60;2.70;;;;;;;-8.72;78.12;99797.64;84699;1325;22672;-70
2021/12/25 06:21:45;;;;;;;6.80;3.70;;;;;;;-8.80;78.35;99802.31;84686;1325;22703;-70
2021/12/25 06:23:54;;;;;;;7.30;3.50;;;;;;;-8.85;78.34;99807.58;83968;1327;1015827;-69
2021/12/25 06:26:03;;;;;;;6.60;3.80;;;;;;;-8.92;78.43;99805.84;84713;1321;22760;-70
2021/12/25 06:28:12;;;;;;;6.90;3.40;;;;;;;-9.00;78.36;99806.41;84662;1326;22692;-70
2021/12/25 06:30:24;;;;;;;8.30;4.00;;;;;;;-9.08;78.21;99811.73;83989;1327;1003053;-70
2021/12/25 06:32:33;;;;;;;7.30;2.90;;;;;;;-9.18;78.65;99814.48;83953;1328;1002767;-70
2021/12/25 06:34:43;;;;;;;9.90;4.40;;;;;;;-9.22;78.64;99817.56;84661;1325;23733;-70
2021/12/25 06:36:55;;;;;;;8.10;3.60;;;;;;;-9.27;78.50;99818.06;84685;1327;22724;-71
2021/12/25 06:39:04;;;;;;;17.60;5.40;;;;;;;-9.34;78.27;99823.58;84687;1329;22701;-71
2021/12/25 06:41:14;;;;;;;5.80;2.80;;;;;;;-9.37;78.69;99829.06;84711;1324;22800;-70
2021/12/25 06:43:23;;;;;;;10.60;4.80;;;;;;;-9.40;78.43;99831.67;84683;1321;22709;-70
2021/12/25 06:45:32;;;;;;;6.90;4.20;;;;;;;-9.41;78.83;99835.02;84661;1329;25249;-70
2021/12/25 06:47:43;;;;;;;12.10;3.60;;;;;;;-9.38;78.81;99838.30;84689;1327;25428;-71
2021/12/25 06:49:55;;;;;;;10.50;3.00;;;;;;;-9.36;78.80;99841.59;84693;1327;22707;-72
2021/12/25 06:52:05;;;;;;;5.70;2.80;;;;;;;-9.39;78.83;99840.48;84707;1326;22812;-72
2021/12/25 06:54:18;;;;;;;5.10;2.90;;;;;;;-9.34;79.13;99841.48;84677;1327;22799;-71
2021/12/25 06:56:28;;;;;;;6.60;3.20;;;;;;;-9.27;79.24;99842.72;84679;1327;22748;-70
2021/12/25 06:58:36;;;;;;;;;;;;;;;-9.22;78.71;99844.74;84694;1324;22831;-70
2021/12/25 07:00:46;;;;;;;6.00;3.30;;;;;;;-9.22;79.10;99846.42;84694;1329;23942;-70
2021/12/25 07:02:59;;;;;;;12.90;4.40;;;;;;;-9.19;78.80;99846.21;84699;1327;22851;-70
2021/12/25 07:05:11;;;;;;;8.40;4.30;;;;;;;-9.12;79.12;99846.44;84760;1328;22650;-70
2021/12/25 07:07:23;;;;;;;10.00;4.40;;;;;;;-9.07;79.12;99851.30;84071;1327;910913;-70
2021/12/25 07:09:35;;;;;;;8.80;5.30;;;;;;;-9.03;79.04;99855.66;84712;1326;22671;-70
2021/12/25 07:11:47;;;;;;;10.90;4.30;;;;;;;-9.01;78.87;99860.28;84677;1328;22607;-70
2021/12/25 07:14:01;;;;;;;7.50;3.80;;;;;;;-9.01;78.79;99859.26;84719;1324;25473;-73
2021/12/25 07:16:11;;;;;;;7.90;4.60;;;;;;;-9.05;78.59;99857.61;84012;1327;1003089;-70
2021/12/25 07:18:25;;;;;;;10.30;5.00;;;;;;;-9.05;78.76;99858.81;84706;1327;22649;-73
2021/12/25 07:20:36;;;;;;;8.50;4.00;;;;;;;-9.06;78.58;99859.95;84764;1328;22643;-74
2021/12/25 07:22:50;;;;;;;10.20;4.90;;;;;;;-9.10;78.70;99865.58;84740;1325;22634;-71
2021/12/25 07:25:04;;;;;;;6.80;4.00;;;;;;;-9.13;78.70;99871.39;84805;1327;24261;-70
2021/12/25 07:27:16;;;;;;;7.00;4.70;;;;;;;-9.18;78.54;99875.64;84746;1329;22628;-71
2021/12/25 07:29:26;;;;;;;9.00;4.10;;;;;;;-9.25;78.42;99875.39;84731;1327;22620;-71
2021/12/25 07:31:39;;;;;;;7.50;4.40;;;;;;;-9.28;78.60;99878.66;84696;1327;25354;-71
2021/12/25 07:33:48;;;;;;;8.40;4.70;;;;;;;-9.27;78.94;99880.22;84709;1325;22650;-70
2021/12/25 07:35:58;;;;;;;13.80;5.00;;;;;;;-9.23;78.81;99879.67;84728;1324;22742;-71
2021/12/25 07:38:10;;;;;;;5.40;3.80;;;;;;;-9.18;78.94;99877.67;84705;1327;24235;-71
2021/12/25 07:40:20;;;;;;;6.70;5.00;;;;;;;-9.12;78.83;99879.21;84728;1326;22645;-71
2021/12/25 07:42:33;;;;;;;12.20;4.40;;;;;;;-9.07;78.73;99884.61;84689;1327;23902;-71
2021/12/25 07:44:43;;;;;;;12.40;4.70;;;;;;;-8.97;78.85;99888.98;84724;1330;22697;-71
2021/12/25 07:46:54;;;;;;;12.10;5.00;;;;;;;-8.82;79.05;99895.90;84721;1325;22626;-71
2021/12/25 07:49:04;;;;;;;9.80;4.60;;;;;;;-8.68;79.07;99898.52;84720;1327;23978;-72
2021/12/25 07:51:14;;;;;;;8.30;4.50;;;;;;;-8.53;78.81;99896.95;84693;1328;25285;-71
2021/12/25 07:53:26;;;;;;;14.00;5.40;;;;;;;-8.37;78.51;99895.41;84697;1327;22957;-72
2021/12/25 07:55:35;;;;;;;8.90;4.90;;;;;;;-8.25;78.29;99895.20;84675;1321;22626;-72
2021/12/25 07:57:44;;;;;;;13.70;6.10;;;;;;;-8.15;78.16;99897.20;84647;1324;22683;-71
2021/12/25 07:59:55;;;;;;;11.50;4.70;;;;;;;-8.06;77.91;99895.61;84736;1327;22619;-72
2021/12/25 08:02:06;;;;;;;12.50;5.80;;;;;;;-8.01;77.61;99895.94;84729;1324;22805;-73
2021/12/25 08:04:18;;;;;;;16.20;6.50;;;;;;;-7.96;77.42;99901.84;84739;1327;22809;-72
2021/12/25 08:06:28;;;;;;;12.90;5.50;;;;;;;-7.93;77.08;99903.63;84728;1327;24237;-72
2021/12/25 08:08:38;;;;;;;10.40;6.00;;;;;;;-7.91;76.73;99908.06;84750;1327;22624;-75
2021/12/25 08:10:55;;;;;;;13.70;6.30;;;;;;;-7.93;76.63;99913.94;84002;1327;1003045;-75
2021/12/25 08:13:05;;;;;;;11.00;5.00;;;;;;;-7.97;76.65;99916.36;84659;1329;22721;-75
2021/12/25 08:15:15;;;;;;;12.00;5.50;;;;;;;-7.99;76.62;99917.99;83984;1329;1002565;-71
2021/12/25 08:17:26;;;;;;;11.90;5.60;;;;;;;-8.00;76.55;99921.16;84692;1330;22613;-72
2021/12/25 08:19:35;;;;;;;11.10;6.10;;;;;;;-8.02;76.67;99918.75;84739;1326;25305;-73
2021/12/25 08:21:48;;;;;;;11.80;6.20;;;;;;;-8.04;76.50;99919.35;83992;1327;1003133;-74
2021/12/25 08:23:58;;;;;;;16.00;5.50;;;;;;;-8.07;76.58;99922.36;84728;1327;22612;-74
2021/12/25 08:26:08;;;;;;;10.50;5.50;;;;;;;-8.06;76.40;99929.98;84731;1327;25366;-74
2021/12/25 08:28:18;;;;;;;10.20;5.30;;;;;;;-8.04;76.77;99932.08;84716;1324;22822;-73
2021/12/25 08:30:31;;;;;;;15.60;6.00;;;;;;;-7.98;77.05;99933.41;84662;1328;22769;-73
2021/12/25 08:32:42;;;;;;;12.40;5.30;;;;;;;-7.90;77.11;99938.40;83949;1332;1003728;-73
2021/12/25 08:34:55;;;;;;;13.10;6.40;;;;;;;-7.79;77.12;99941.42;84001;1327;1003403;-72
2021/12/25 08:37:04;;;;;;;10.90;5.20;;;;;;;-7.67;77.21;99941.78;84721;1327;22619;-73
2021/12/25 08:39:15;;;;;;;13.80;5.80;;;;;;;-7.52;76.95;99945.91;84703;1325;22727;-73
2021/12/25 08:41:28;;;;;;;15.30;7.10;;;;;;;-7.38;76.93;99943.40;84704;1327;25523;-72
2021/12/25 08:43:46;;;;;;;11.10;5.40;;;;;;;-7.26;76.86;99948.30;84737;1328;24242;-72
2021/12/25 08:46:03;;;;;;;11.10;5.80;;;;;;;-7.12;76.62;99953.25;84703;1328;22576;-73
2021/12/25 08:48:18;;;;;;;13.20;6.50;;;;;;;-7.06;76.47;99955.45;84700;1327;23995;-72
2021/12/25 08:50:30;;;;;;;16.90;7.50;;;;;;;-7.00;76.39;99955.61;84003;1328;1003651;-72
2021/12/25 08:52:41;;;;;;;17.00;6.90;;;;;;;-6.94;75.94;99957.62;84710;1327;22613;-72
2021/12/25 08:54:54;;;;;;;19.00;8.10;;;;;;;-6.93;75.90;99958.15;84717;1327;22733;-73
2021/12/25 08:57:15;;;;;;;19.50;7.90;;;;;;;-6.91;76.04;99957.52;84708;1327;22597;-73
2021/12/25 08:59:24;;;;;;;17.30;6.80;;;;;;;-6.87;75.96;99961.70;84731;1327;22609;-72
2021/12/25 09:01:33;;;;;;;13.40;6.20;;;;;;;-6.82;75.94;99961.48;84723;1327;22588;-72
2021/12/25 09:03:42;;;;;;;11.10;7.40;;;;;;;-6.71;75.99;99961.58;84694;1325;25643;-72
2021/12/25 09:05:55;;;;;;;16.30;7.40;;;;;;;-6.57;75.89;99962.10;84706;1328;23138;-71
2021/12/25 09:08:11;;;;;;;14.40;7.70;;;;;;;-6.44;75.52;99961.90;84020;1327;1003044;-72
2021/12/25 09:10:21;;;;;;;12.90;7.20;;;;;;;-6.30;75.21;99962.91;84759;1328;22604;-73
2021/12/25 09:12:33;;;;;;;15.50;7.10;;;;;;;-6.14;74.80;99962.94;84731;1326;22809;-73
2021/12/25 09:14:43;;;;;;;14.70;7.20;;;;;;;-5.99;74.49;99962.08;84685;1330;22593;-76
2021/12/25 09:16:53;;;;;;;11.80;8.00;;;;;;;-5.82;74.39;99963.95;84674;1324;22594;-75
2021/12/25 09:19:05;;;;;;;11.90;6.70;;;;;;;-5.66;74.18;99959.02;84712;1327;22947;-75
2021/12/25 09:21:14;;;;;;;14.00;7.30;;;;;;;-5.53;73.99;99962.50;84008;1327;1002910;-73
2021/12/25 09:23:24;;;;;;;19.10;7.20;;;;;;;-5.33;73.86;99959.17;84700;1328;22678;-72
2021/12/25 09:25:37;;;;;;;14.80;7.60;;;;;;;-5.07;73.02;99954.54;84737;1327;27110;-74
2021/12/25 09:27:47;;;;;;;17.00;7.90;;;;;;;-4.80;72.45;99952.11;84008;1327;1003040;-74
2021/12/25 09:29:58;;;;;;;17.90;8.00;;;;;;;-4.53;72.10;99951.90;84721;1327;25433;-72
2021/12/25 09:32:10;;;;;;;14.50;7.70;;;;;;;-4.25;71.46;99955.73;83991;1325;1003145;-72
2021/12/25 09:34:21;;;;;;;14.50;7.30;;;;;;;-3.99;71.20;99958.33;84713;1327;22603;-75
2021/12/25 09:36:34;;;;;;;15.70;8.00;;;;;;;-3.77;70.64;99960.31;84693;1327;22586;-74
2021/12/25 09:38:44;;;;;;;15.50;7.70;;;;;;;-3.55;70.22;99968.43;84713;1323;23933;-74
2021/12/25 09:40:58;;;;;;;14.60;7.80;;;;;;;-3.36;69.52;99968.84;84709;1327;24050;-75
2021/12/25 09:43:09;;;;;;;17.70;8.30;;;;;;;-3.12;69.29;99971.00;84704;1330;22587;-75
2021/12/25 09:45:21;;;;;;;19.30;9.10;;;;;;;-2.86;68.63;99969.04;84009;1327;1016557;-74
2021/12/25 09:47:30;;;;;;;19.30;8.40;;;;;;;-2.66;68.37;99972.82;84689;1327;22718;-75
2021/12/25 09:49:38;;;;;;;;;;;;;;;-2.58;67.92;99965.71;84723;1327;22574;-70
2021/12/25 09:51:51;;;;;;;17.80;8.40;;;;;;;-2.49;67.92;99967.84;84698;1327;22612;-71
2021/12/25 09:54:06;;;;;;;19.70;10.80;;;;;;;-2.31;67.32;99967.98;84696;1327;22898;-72
2021/12/25 09:56:19;;;;;;;22.00;9.80;;;;;;;-2.13;67.18;99967.77;84719;1327;22612;-72
2021/12/25 09:58:29;;;;;;;15.20;8.30;;;;;;;-1.94;66.75;99966.18;84691;1327;24324;-75
2021/12/25 10:00:41;;;;;;;17.10;8.30;;;;;;;-1.75;66.73;99962.19;84013;1327;1003267;-75
2021/12/25 10:02:53;;;;;;;14.60;7.70;;;;;;;-1.51;66.44;99958.19;84705;1327;22591;-75
2021/12/25 10:05:10;;;;;;;16.30;9.10;;;;;;;-1.34;66.04;99957.23;84699;1327;22887;-71
2021/12/25 10:07:23;;;;;;;17.10;8.10;;;;;;;-1.16;64.54;99956.26;84710;1327;22616;-72
2021/12/25 10:09:36;;;;;;;18.30;9.50;;;;;;;-0.94;65.25;99956.82;84684;1327;22618;-75
2021/12/25 10:14:19;;;;;;;16.20;8.40;;;;;;;-0.40;64.27;99957.05;81246;1371;1003131;-72
2021/12/25 10:16:31;;;;;;;16.00;7.80;;;;;;;-0.20;64.23;99958.73;84172;1339;25450;-70
2021/12/25 10:19:19;;;;;;;16.30;8.00;;;;;;;0.00;64.06;99958.72;84050;1342;22909;-73
2021/12/25 10:21:32;;;;;;;18.40;8.00;;;;;;;0.20;63.48;99964.67;84164;1339;23727;-73
2021/12/25 10:23:45;;;;;;;18.20;8.50;;;;;;;0.41;63.20;99972.00;84410;1337;22828;-73
2021/12/25 10:25:58;;;;;;;15.40;7.30;;;;;;;0.54;61.85;99973.50;84337;1338;22621;-76
2021/12/25 10:28:15;;;;;;;17.00;8.60;;;;;;;0.44;61.98;99975.77;82289;1334;3067339;-75
2021/12/25 10:30:29;;;;;;;15.60;9.30;;;;;;;0.20;61.76;99977.37;84481;1332;24100;-72
2021/12/25 10:32:43;;;;;;;17.10;8.90;;;;;;;-0.15;60.91;99980.16;84440;1331;22597;-72
2021/12/25 10:34:57;;;;;;;18.10;10.20;;;;;;;-0.58;61.46;99979.66;84474;1334;22813;-72
2021/12/25 10:37:12;;;;;;;15.40;9.30;;;;;;;-0.94;62.12;99980.63;84454;1334;22614;-71
2021/12/25 10:39:28;;;;;;;18.60;10.60;;;;;;;-1.28;61.70;99978.30;84490;1333;22872;-67
2021/12/25 10:41:39;;;;;;;18.00;9.50;;;;;;;-1.60;62.40;99980.73;84426;1336;24317;-66
2021/12/25 10:43:52;;;;;;;21.30;10.70;;;;;;;-1.93;62.34;99980.20;84450;1334;22612;-66
2021/12/25 10:46:09;;;;;;;22.90;9.70;;;;;;;-2.25;62.98;99982.55;84442;1334;22604;-67
2021/12/25 10:48:32;;;;;;;20.20;10.90;;;;;;;-2.56;63.63;99983.67;84440;1332;22679;-68
2021/12/25 10:50:48;;;;;;;18.70;10.30;;;;;;;-2.80;63.88;99989.93;84457;1334;22641;-66
2021/12/25 10:53:07;;;;;;;15.80;8.90;;;;;;;-3.05;64.12;99990.69;83972;1331;1003142;-65
2021/12/25 10:55:22;;;;;;;22.90;10.60;;;;;;;-3.27;64.57;99993.16;84041;1326;1015653;-74
2021/12/25 10:57:45;;;;;;;22.40;10.40;;;;;;;-3.47;64.73;99997.70;84046;1326;1003246;-74
2021/12/25 11:00:01;;;;;;;16.90;10.10;;;;;;;-3.63;65.44;99995.62;84809;1328;24273;-70
2021/12/25 11:02:10;;;;;;;22.00;10.10;;;;;;;-3.76;65.78;99994.24;84767;1322;22633;-74
2021/12/25 11:04:36;;;;;;;19.60;9.50;;;;;;;-3.88;66.16;99992.21;84839;1326;24164;-71
2021/12/25 11:06:50;;;;;;;18.30;9.10;;;;;;;-4.00;66.32;99998.34;84040;1326;1002999;-71
2021/12/25 11:09:01;;;;;;;22.60;10.20;;;;;;;-4.11;66.82;100004.65;84854;1327;22595;-74
2021/12/25 11:11:20;;;;;;;19.80;10.30;;;;;;;-4.21;67.07;100000.93;84025;1326;1003367;-72
2021/12/25 11:13:34;;;;;;;19.30;10.40;;;;;;;-4.29;66.95;100000.29;84054;1330;1016648;-72
2021/12/25 11:15:45;;;;;;;21.00;10.30;;;;;;;-4.38;67.12;100000.83;84636;1332;22607;-72